createdAt,value
2022-09-06T00:02:54.836Z,0.90
2022-09-06T00:08:05.056Z,1.00
2022-09-06T00:13:11.717Z,0.73
2022-09-06T00:18:17.210Z,0.87
2022-09-06T00:23:22.776Z,0.70
2022-09-06T00:28:28.433Z,1.20
2022-09-06T00:33:34.220Z,0.80
2022-09-06T00:38:40.512Z,1.10
2022-09-06T00:43:46.359Z,0.80
2022-09-06T00:48:54.906Z,0.70
2022-09-06T00:54:02.310Z,0.70
2022-09-06T00:59:08.494Z,0.77
2022-09-06T01:04:14.869Z,0.80
2022-09-06T01:09:26.169Z,0.70
2022-09-06T01:15:00.507Z,0.77
2022-09-06T01:20:27.370Z,0.70
2022-09-06T01:25:38.670Z,0.93
2022-09-06T01:30:49.914Z,0.73
2022-09-06T01:36:01.385Z,0.70
2022-09-06T01:41:07.400Z,0.70
2022-09-06T01:46:34.145Z,0.77
2022-09-06T01:52:10.387Z,0.70
2022-09-06T01:57:41.556Z,0.63
2022-09-06T02:03:11.400Z,0.80
2022-09-06T02:08:20.022Z,0.77
2022-09-06T02:13:28.360Z,0.87
2022-09-06T02:18:45.908Z,0.60
2022-09-06T02:23:54.087Z,0.70
2022-09-06T02:28:59.703Z,0.67
2022-09-06T02:34:06.662Z,0.70
2022-09-06T02:39:13.343Z,0.60
2022-09-06T02:44:18.943Z,0.80
2022-09-06T02:49:24.611Z,0.90
2022-09-06T02:54:31.407Z,0.87
2022-09-06T02:59:36.972Z,0.63
2022-09-06T03:04:42.497Z,0.73
2022-09-06T03:09:48.095Z,0.90
2022-09-06T03:14:55.137Z,0.70
2022-09-06T03:20:00.968Z,0.83
2022-09-06T03:25:07.700Z,0.70
2022-09-06T03:30:13.899Z,0.97
2022-09-06T03:35:19.510Z,1.30
2022-09-06T03:40:24.987Z,0.80
2022-09-06T03:45:30.575Z,1.03
2022-09-06T03:50:36.245Z,1.00
2022-09-06T03:55:43.351Z,0.97
2022-09-06T04:00:49.161Z,0.83
2022-09-06T04:05:54.845Z,1.20
2022-09-06T04:11:01.022Z,0.80
2022-09-06T04:16:07.773Z,1.00
2022-09-06T04:21:13.381Z,1.00
2022-09-06T04:26:19.153Z,1.13
2022-09-06T04:31:24.733Z,1.13
2022-09-06T04:36:30.293Z,1.00
2022-09-06T04:41:35.862Z,0.83
2022-09-06T04:46:43.666Z,0.80
2022-09-06T04:51:49.252Z,0.90
2022-09-06T04:56:54.840Z,1.40
2022-09-06T05:02:00.589Z,1.40
2022-09-06T05:07:08.726Z,1.70
2022-09-06T05:12:15.986Z,1.17
2022-09-06T05:17:21.511Z,1.30
2022-09-06T05:22:27.019Z,1.10
2022-09-06T05:27:32.596Z,1.20
2022-09-06T05:32:38.142Z,1.20
2022-09-06T05:37:43.627Z,1.33
2022-09-06T05:42:49.204Z,0.73
2022-09-06T05:47:55.047Z,1.23
2022-09-06T05:53:00.832Z,1.00
2022-09-06T05:58:06.385Z,0.97
2022-09-06T06:03:11.918Z,1.00
2022-09-06T06:08:17.402Z,1.20
2022-09-06T06:13:22.969Z,1.07
2022-09-06T06:18:28.557Z,1.53
2022-09-06T06:23:34.323Z,1.10
2022-09-06T06:28:40.901Z,1.07
2022-09-06T06:33:46.588Z,1.10
2022-09-06T06:38:55.279Z,1.20
2022-09-06T06:44:03.024Z,1.10
2022-09-06T06:49:08.609Z,1.00
2022-09-06T06:54:14.385Z,1.00
2022-09-06T06:59:20.834Z,1.13
2022-09-06T07:04:26.403Z,1.07
2022-09-06T07:14:39.268Z,0.90
2022-09-06T07:24:52.149Z,0.97
2022-09-06T07:29:57.799Z,1.03
2022-09-06T07:35:03.475Z,0.87
2022-09-06T07:40:10.352Z,1.00
2022-09-06T07:45:16.378Z,1.00
2022-09-06T07:55:29.735Z,0.90
2022-09-06T08:00:35.302Z,0.90
2022-09-06T08:10:52.823Z,0.97
2022-09-06T08:16:03.204Z,0.83
2022-09-06T08:21:13.935Z,0.97
2022-09-06T08:26:24.211Z,0.90
2022-09-06T08:31:31.746Z,0.70
2022-09-06T08:36:37.834Z,0.70
2022-09-06T08:41:52.267Z,0.90
2022-09-06T08:47:01.586Z,0.80
2022-09-06T08:52:25.516Z,0.80
2022-09-06T08:57:40.502Z,0.90
2022-09-06T09:02:49.273Z,0.87
2022-09-06T09:08:19.076Z,0.87
2022-09-06T09:13:30.271Z,0.70
2022-09-06T09:18:39.197Z,0.70
2022-09-06T09:23:47.482Z,0.90
2022-09-06T09:29:11.240Z,1.10
2022-09-06T09:34:33.457Z,0.60
2022-09-06T09:39:41.182Z,0.60
2022-09-06T09:44:47.285Z,0.60
2022-09-06T09:49:52.885Z,0.77
2022-09-06T09:55:05.269Z,0.60
2022-09-06T10:00:15.139Z,0.70
2022-09-06T10:05:22.437Z,0.70
2022-09-06T10:10:44.329Z,0.67
2022-09-06T10:15:52.168Z,0.70
2022-09-06T10:21:09.754Z,0.70
2022-09-06T10:26:18.270Z,0.70
2022-09-06T10:31:43.721Z,0.50
2022-09-06T10:36:55.066Z,0.70
2022-09-06T10:42:15.946Z,0.60
2022-09-06T10:47:23.242Z,0.60
2022-09-06T10:52:34.459Z,0.60
2022-09-06T11:13:26.005Z,0.67
2022-09-06T11:18:37.283Z,0.70
2022-09-06T11:23:45.848Z,0.50
2022-09-06T11:29:00.321Z,0.70
2022-09-06T11:34:11.536Z,0.60
2022-09-06T11:44:57.605Z,0.70
2022-09-06T11:50:21.168Z,0.70
2022-09-06T11:55:38.583Z,0.50
2022-09-06T12:00:44.749Z,0.60
2022-09-06T12:06:17.658Z,0.80
2022-09-06T12:11:30.085Z,0.70
2022-09-06T12:16:52.545Z,0.70
2022-09-06T12:21:58.109Z,0.70
2022-09-06T12:27:18.524Z,0.70
2022-09-06T12:32:27.085Z,0.70
2022-09-06T12:37:42.140Z,0.80
2022-09-06T12:42:50.708Z,0.73
2022-09-06T12:48:10.453Z,0.70
2022-09-06T12:53:25.562Z,0.90
2022-09-06T12:58:31.239Z,0.63
2022-09-06T13:04:10.089Z,0.70
2022-09-06T13:09:18.614Z,0.97
2022-09-06T13:14:29.908Z,1.10
2022-09-06T13:19:38.093Z,1.00
2022-09-06T13:24:47.810Z,1.03
2022-09-06T13:30:01.414Z,0.70
2022-09-06T13:35:07.534Z,0.80
2022-09-06T13:40:37.753Z,0.87
2022-09-06T13:45:41.615Z,0.80
2022-09-06T13:50:47.462Z,1.30
2022-09-06T13:55:53.125Z,0.80
2022-09-06T14:01:00.398Z,1.10
2022-09-06T14:06:06.325Z,1.40
2022-09-06T14:11:13.625Z,1.37
2022-09-06T14:16:19.254Z,0.97
2022-09-06T14:21:25.065Z,0.90
2022-09-06T14:26:31.049Z,0.93
2022-09-06T14:31:36.904Z,1.00
2022-09-06T14:36:42.869Z,0.80
2022-09-06T14:41:48.439Z,1.03
2022-09-06T14:46:54.736Z,0.93
2022-09-06T14:52:00.290Z,0.93
2022-09-06T14:57:06.686Z,1.00
2022-09-06T15:02:12.415Z,1.00
2022-09-06T15:07:18.611Z,0.87
2022-09-06T15:12:24.746Z,1.10
2022-09-06T15:17:30.272Z,1.10
2022-09-06T15:22:36.845Z,1.00
2022-09-06T15:27:42.408Z,0.80
2022-09-06T15:32:47.973Z,1.00
2022-09-06T15:37:53.649Z,0.90
2022-09-06T15:42:59.243Z,0.90
2022-09-06T15:48:05.078Z,0.90
2022-09-06T15:53:10.658Z,0.90
2022-09-06T15:58:16.455Z,0.90
2022-09-06T16:03:21.984Z,0.90
2022-09-06T16:08:27.556Z,0.97
2022-09-06T16:13:37.814Z,0.70
2022-09-06T16:18:47.175Z,0.70
2022-09-06T16:23:56.224Z,1.03
2022-09-06T16:29:04.767Z,0.80
2022-09-06T16:34:12.194Z,0.73
2022-09-06T16:39:17.883Z,0.80
2022-09-06T16:44:23.644Z,1.37
2022-09-06T16:49:29.749Z,1.10
2022-09-06T16:54:35.410Z,0.90
2022-09-06T16:59:40.909Z,1.20
2022-09-06T17:04:46.472Z,1.13
2022-09-06T17:09:52.194Z,1.30
2022-09-06T17:14:57.911Z,1.00
2022-09-06T17:20:05.210Z,1.20
2022-09-06T17:25:14.312Z,1.40
2022-09-06T17:30:21.067Z,1.37
2022-09-06T17:35:28.885Z,1.30
2022-09-06T17:40:38.456Z,1.93
2022-09-06T17:45:44.745Z,1.30
2022-09-06T17:50:50.388Z,1.63
2022-09-06T17:55:56.039Z,1.30
2022-09-06T18:01:06.552Z,1.73
2022-09-06T18:06:14.854Z,1.53
2022-09-06T18:11:26.108Z,1.40
2022-09-06T18:16:33.017Z,1.23
2022-09-06T18:21:41.171Z,1.60
2022-09-06T18:26:47.146Z,1.50
2022-09-06T18:31:54.357Z,1.20
2022-09-06T18:37:00.216Z,1.67
2022-09-06T18:42:07.525Z,1.33
2022-09-06T18:47:13.700Z,1.50
2022-09-06T18:52:21.056Z,2.10
2022-09-06T18:57:26.679Z,1.60
2022-09-06T19:02:32.702Z,1.97
2022-09-06T19:07:38.441Z,2.30
2022-09-06T19:12:43.997Z,1.97
2022-09-06T19:17:53.065Z,1.57
2022-09-06T19:22:58.598Z,1.90
2022-09-06T19:28:04.664Z,1.20
2022-09-06T19:33:10.231Z,1.60
2022-09-06T19:38:15.711Z,1.83
2022-09-06T19:43:21.677Z,1.90
2022-09-06T19:48:28.850Z,2.20
2022-09-06T19:53:35.661Z,1.83
2022-09-06T19:58:42.004Z,1.63
2022-09-06T20:03:48.126Z,2.10
2022-09-06T20:08:55.255Z,1.73
2022-09-06T20:14:01.740Z,2.20
2022-09-06T20:19:07.279Z,2.37
2022-09-06T20:24:13.056Z,2.40
2022-09-06T20:29:18.823Z,2.80
2022-09-06T20:34:24.388Z,2.20
2022-09-06T20:39:29.976Z,2.23
2022-09-06T20:44:35.569Z,2.00
2022-09-06T20:49:41.077Z,2.40
2022-09-06T20:54:46.643Z,2.67
2022-09-06T20:59:52.167Z,2.43
2022-09-06T21:04:57.666Z,2.30
2022-09-06T21:10:03.201Z,2.10
2022-09-06T21:15:08.869Z,2.63
2022-09-06T21:20:14.467Z,2.13
2022-09-06T21:25:20.036Z,2.23
2022-09-06T21:30:26.936Z,1.80
2022-09-06T21:35:33.986Z,2.10
2022-09-06T21:40:39.490Z,2.20
2022-09-06T21:45:45.043Z,2.17
2022-09-06T21:50:51.597Z,2.00
2022-09-06T21:56:04.815Z,1.70
2022-09-06T22:01:10.638Z,1.30
2022-09-06T22:06:25.807Z,2.33
2022-09-06T22:11:34.318Z,1.83
2022-09-06T22:16:41.337Z,1.60
2022-09-06T22:21:47.180Z,1.60
2022-09-06T22:26:53.053Z,1.63
2022-09-06T22:31:59.036Z,1.50
2022-09-06T22:37:04.874Z,1.30
2022-09-06T22:42:11.308Z,1.77
2022-09-06T22:47:17.133Z,1.50
2022-09-06T22:52:23.210Z,1.73
2022-09-06T22:57:28.993Z,1.60
2022-09-06T23:02:34.850Z,1.60
2022-09-06T23:07:42.257Z,1.50
2022-09-06T23:12:48.638Z,1.47
2022-09-06T23:17:54.492Z,1.43
2022-09-06T23:23:00.281Z,1.83
2022-09-06T23:28:06.358Z,1.60
2022-09-06T23:33:12.379Z,1.60
2022-09-06T23:38:18.719Z,1.60
2022-09-06T23:43:24.481Z,1.37
2022-09-06T23:48:30.404Z,1.70
2022-09-06T23:53:36.230Z,1.70
2022-09-06T23:58:42.388Z,1.13
